createdAt,value
2018-07-16T06:03:24.684Z,46.40
2018-07-16T06:05:53.690Z,46.40
2018-07-16T06:08:22.682Z,48.50
2018-07-16T06:10:51.761Z,49.40
2018-07-16T06:13:21.076Z,50.10
2018-07-16T06:15:50.278Z,51.00
2018-07-16T06:18:19.303Z,50.70
2018-07-16T06:20:48.432Z,50.80
2018-07-16T06:23:17.714Z,52.10
2018-07-16T06:25:46.743Z,51.80
2018-07-16T06:28:15.888Z,52.30
2018-07-16T06:30:45.221Z,51.80
2018-07-16T06:33:14.370Z,51.40
2018-07-16T06:35:43.475Z,51.50
2018-07-16T06:38:12.692Z,50.60
2018-07-16T06:40:42.157Z,50.30
2018-07-16T06:43:11.316Z,50.20
2018-07-16T06:45:40.543Z,50.50
2018-07-16T08:53:23.313Z,46.00
2018-07-16T08:55:52.679Z,45.80
2018-07-16T08:58:22.363Z,45.20
2018-07-16T09:00:51.856Z,44.80
2018-07-16T09:03:21.385Z,45.50
2018-07-16T09:05:54.944Z,45.20
2018-07-16T09:08:24.490Z,45.20
2018-07-16T09:10:54.024Z,45.10
2018-07-16T09:13:23.158Z,44.70
2018-07-16T09:15:52.293Z,44.80
2018-07-16T09:18:21.581Z,44.10
2018-07-16T09:20:50.842Z,43.90
2018-07-16T09:23:19.838Z,44.30
2018-07-16T09:25:49.256Z,43.90
2018-07-16T09:28:18.317Z,44.00
2018-07-16T09:30:47.404Z,43.80
2018-07-16T09:33:16.622Z,43.10
2018-07-16T09:35:45.725Z,43.10
2018-07-16T09:38:14.926Z,43.30
2018-07-16T09:40:44.118Z,42.30
2018-07-16T09:43:13.403Z,43.10
2018-07-16T09:45:42.512Z,43.40
2018-07-16T09:48:11.649Z,42.90
2018-07-16T09:50:40.735Z,43.10
2018-07-16T09:53:10.638Z,42.40
2018-07-16T09:55:39.749Z,42.10
2018-07-16T09:58:08.869Z,42.00
2018-07-16T10:00:39.178Z,42.10
2018-07-16T10:03:08.831Z,41.60
2018-07-16T10:05:37.847Z,42.20
2018-07-16T10:08:06.998Z,42.30
2018-07-16T10:10:36.171Z,42.70
2018-07-16T10:13:05.398Z,42.70
2018-07-16T10:15:34.853Z,42.70
2018-07-16T10:18:04.027Z,42.20
2018-07-16T10:20:33.265Z,42.70
2018-07-16T10:23:02.324Z,42.50
2018-07-16T10:25:31.447Z,41.40
2018-07-16T10:28:00.539Z,41.70
2018-07-16T10:30:29.708Z,41.20
2018-07-16T10:32:58.799Z,41.00
2018-07-16T10:35:28.005Z,41.30
2018-07-16T10:37:57.124Z,41.70
2018-07-16T10:40:26.118Z,41.50
2018-07-16T10:42:55.235Z,41.50
2018-07-16T10:45:24.283Z,41.50
2018-07-16T10:47:53.492Z,41.00
2018-07-16T10:50:22.627Z,40.50
2018-07-16T10:52:51.750Z,40.80
2018-07-16T10:55:20.896Z,41.20
2018-07-16T10:57:50.127Z,39.80
2018-07-16T11:00:19.412Z,39.80
2018-07-16T11:02:49.042Z,41.20
2018-07-16T11:05:18.302Z,41.90
2018-07-16T11:07:47.497Z,40.40
2018-07-16T11:10:16.779Z,39.90
2018-07-16T11:12:45.903Z,40.30
2018-07-16T11:15:15.127Z,40.50
2018-07-16T11:17:44.471Z,40.60
2018-07-16T11:20:13.627Z,39.30
2018-07-16T11:22:42.758Z,39.60
2018-07-16T11:25:11.891Z,39.90
2018-07-16T11:27:41.091Z,39.30
2018-07-16T11:30:10.108Z,38.90
2018-07-16T11:32:39.125Z,39.00
2018-07-16T11:35:08.651Z,39.70
2018-07-16T11:37:37.839Z,39.30
2018-07-16T11:40:06.881Z,39.00
2018-07-16T11:42:35.962Z,39.00
2018-07-16T11:45:05.682Z,39.00
2018-07-16T11:47:35.708Z,39.10
2018-07-16T11:50:05.408Z,39.10
2018-07-16T11:52:34.552Z,38.40
2018-07-16T11:55:03.805Z,39.00
2018-07-16T11:57:32.917Z,37.10
2018-07-16T12:00:03.481Z,37.10
2018-07-16T12:02:32.806Z,37.30
2018-07-16T12:05:01.949Z,37.50
2018-07-16T12:07:30.947Z,37.40
2018-07-16T12:10:00.213Z,37.60
2018-07-16T12:12:29.666Z,37.10
2018-07-16T12:14:59.017Z,37.40
2018-07-16T12:17:28.123Z,37.20
2018-07-16T12:19:57.342Z,37.50
2018-07-16T12:22:26.409Z,37.70
2018-07-16T12:24:55.312Z,37.80
2018-07-16T12:27:24.597Z,37.80
2018-07-16T12:29:53.961Z,37.60
2018-07-16T12:32:23.046Z,38.60
2018-07-16T12:34:52.538Z,37.20
2018-07-16T12:37:21.629Z,37.40
2018-07-16T12:39:50.715Z,37.30
2018-07-16T12:42:19.956Z,37.40
2018-07-16T12:44:49.105Z,37.30
2018-07-16T12:47:18.318Z,37.30
2018-07-16T12:49:47.416Z,37.60
2018-07-16T12:52:16.457Z,37.50
2018-07-16T12:54:45.633Z,37.40
2018-07-16T12:57:14.865Z,37.10
2018-07-16T12:59:43.947Z,36.50
2018-07-16T13:02:13.064Z,35.60
2018-07-16T13:04:42.048Z,36.20
2018-07-16T13:07:11.169Z,36.40
2018-07-16T13:09:40.211Z,36.10
2018-07-16T13:12:09.640Z,36.40
2018-07-16T13:14:38.793Z,36.30
2018-07-16T13:17:08.023Z,36.00
2018-07-16T13:19:37.067Z,36.60
2018-07-16T13:22:06.078Z,36.30
2018-07-16T13:24:35.546Z,36.60
2018-07-16T13:27:04.769Z,35.60
2018-07-16T13:29:34.014Z,35.10
2018-07-16T13:32:03.049Z,35.30
2018-07-16T13:34:32.245Z,35.60
2018-07-16T13:37:01.550Z,35.70
2018-07-16T13:39:30.744Z,35.80
2018-07-16T13:41:59.911Z,35.90
2018-07-16T13:44:29.126Z,35.80
2018-07-16T13:46:58.349Z,36.10
2018-07-16T13:49:27.495Z,36.30
2018-07-16T13:51:56.496Z,36.30
2018-07-16T13:54:25.601Z,35.70
2018-07-16T13:56:54.665Z,36.30
2018-07-16T13:59:23.696Z,36.60
2018-07-16T14:01:52.935Z,36.30
2018-07-16T14:04:22.073Z,36.20
2018-07-16T14:06:51.129Z,36.40
2018-07-16T14:09:20.223Z,35.80
2018-07-16T14:11:49.318Z,36.20
2018-07-16T14:14:18.351Z,35.60
2018-07-16T14:16:47.489Z,35.70
2018-07-16T14:19:16.626Z,35.70
2018-07-16T14:21:45.713Z,36.00
2018-07-16T14:24:14.912Z,36.20
2018-07-16T14:26:43.986Z,36.10
2018-07-16T14:29:13.332Z,36.10
2018-07-16T14:31:42.506Z,37.10
2018-07-16T14:34:11.447Z,36.40
2018-07-16T14:36:40.477Z,36.70
2018-07-16T14:39:09.760Z,36.80
2018-07-16T14:41:38.795Z,37.60
2018-07-16T14:44:07.882Z,36.70
2018-07-16T14:46:36.998Z,37.20
2018-07-16T14:49:06.691Z,36.60
2018-07-16T14:51:35.845Z,36.60
2018-07-16T14:54:04.974Z,36.50
2018-07-16T14:56:34.369Z,36.40
2018-07-16T14:59:03.499Z,35.90
2018-07-16T15:01:32.493Z,36.20
2018-07-16T15:04:01.523Z,36.00
2018-07-16T15:06:30.789Z,36.20
2018-07-16T15:08:59.881Z,36.10
2018-07-16T15:11:28.991Z,36.30
2018-07-16T15:13:58.162Z,36.30
2018-07-16T15:16:27.259Z,36.60
2018-07-16T15:18:56.388Z,36.30
2018-07-16T15:21:25.734Z,36.00
2018-07-16T15:23:54.554Z,36.30
2018-07-16T15:26:23.795Z,35.90
2018-07-16T15:28:52.942Z,36.50
2018-07-16T15:31:22.234Z,35.90
2018-07-16T15:33:51.317Z,35.40
2018-07-16T15:36:20.608Z,36.20
2018-07-16T15:38:49.805Z,36.00
2018-07-16T15:41:18.938Z,36.40
2018-07-16T15:43:48.050Z,36.30
2018-07-16T15:46:17.177Z,36.30
2018-07-16T15:48:46.317Z,36.60
2018-07-16T15:51:15.447Z,36.60
2018-07-16T15:53:44.492Z,36.20
2018-07-16T15:56:13.557Z,36.00
2018-07-16T15:58:42.660Z,35.80
2018-07-16T16:01:11.939Z,36.30
2018-07-16T16:03:40.974Z,35.80
2018-07-16T16:06:10.232Z,36.20
2018-07-16T16:08:39.485Z,36.40
2018-07-16T16:11:08.701Z,36.50
2018-07-16T16:13:37.836Z,36.60
2018-07-16T16:16:07.031Z,36.50
2018-07-16T16:18:36.251Z,36.50
2018-07-16T16:21:05.400Z,36.70
2018-07-16T16:23:34.515Z,36.80
2018-07-16T16:26:03.738Z,37.00
2018-07-16T16:28:32.885Z,37.00
2018-07-16T16:31:02.085Z,37.20
2018-07-16T16:33:31.506Z,38.00
2018-07-16T16:36:00.588Z,37.30
2018-07-16T16:38:29.869Z,37.40
2018-07-16T16:40:59.107Z,37.40
2018-07-16T16:43:28.416Z,37.60
2018-07-16T16:45:57.600Z,37.70
2018-07-16T16:48:26.803Z,37.80
2018-07-16T16:50:55.931Z,37.90
2018-07-16T16:53:24.912Z,38.20
2018-07-16T16:55:53.967Z,38.20
2018-07-16T16:58:23.369Z,38.10
2018-07-16T17:00:52.927Z,38.20
2018-07-16T17:03:22.082Z,38.40
2018-07-16T17:05:51.481Z,38.70
2018-07-16T17:08:20.666Z,38.90
2018-07-16T17:10:49.806Z,38.80
2018-07-16T17:13:18.880Z,38.60
2018-07-16T17:15:47.911Z,38.50
2018-07-16T17:18:16.989Z,38.60
2018-07-16T17:20:46.022Z,38.50
2018-07-16T17:23:15.538Z,38.50
2018-07-16T17:25:46.048Z,38.70
2018-07-16T17:28:15.230Z,38.70
2018-07-16T17:30:44.310Z,38.90
2018-07-16T17:33:13.618Z,38.90
2018-07-16T17:35:42.770Z,39.20
2018-07-16T17:38:12.932Z,39.20
2018-07-16T17:40:42.036Z,39.20
2018-07-16T17:43:11.190Z,39.30
2018-07-16T17:45:40.222Z,39.50
2018-07-16T17:48:09.386Z,39.60
2018-07-16T17:50:38.638Z,39.60
2018-07-16T17:53:07.838Z,39.60
2018-07-16T17:55:37.203Z,39.60
2018-07-16T17:58:06.361Z,39.60
2018-07-16T18:00:35.417Z,39.70
2018-07-16T18:03:04.643Z,39.70
2018-07-16T18:05:33.760Z,39.80
2018-07-16T18:08:02.895Z,39.80
2018-07-16T18:10:32.041Z,39.80
2018-07-16T18:13:01.118Z,39.90
2018-07-16T18:15:30.368Z,39.80
2018-07-16T18:17:59.524Z,39.90
2018-07-16T18:20:28.674Z,39.90
2018-07-16T18:22:57.915Z,39.90
2018-07-16T18:25:27.046Z,40.00
2018-07-16T18:27:56.176Z,40.00
2018-07-16T18:30:25.222Z,40.00
2018-07-16T18:32:54.256Z,40.00
2018-07-16T18:35:23.550Z,40.00
2018-07-16T18:37:52.643Z,40.00
2018-07-16T18:40:21.755Z,40.20
2018-07-16T18:42:50.972Z,40.20
2018-07-16T18:45:20.204Z,40.20
2018-07-16T18:47:49.394Z,40.20
2018-07-16T18:50:18.426Z,40.20
2018-07-16T18:52:47.672Z,40.30
2018-07-16T18:55:16.684Z,40.30
2018-07-16T18:57:45.811Z,40.20
2018-07-16T19:00:14.928Z,40.40
2018-07-16T19:02:43.925Z,40.40
2018-07-16T19:05:13.328Z,40.40
2018-07-16T19:07:42.421Z,40.40
2018-07-16T19:10:11.747Z,40.40
2018-07-16T19:12:40.979Z,40.50
2018-07-16T19:15:18.943Z,40.50
2018-07-16T19:17:48.674Z,40.50
2018-07-16T19:20:19.296Z,40.60
2018-07-16T19:22:48.434Z,40.60
2018-07-16T19:25:17.637Z,40.60
2018-07-16T19:27:46.667Z,41.30
2018-07-16T19:30:15.965Z,40.70
2018-07-16T19:32:45.467Z,40.80
2018-07-16T19:35:14.880Z,40.80
2018-07-16T19:37:44.121Z,40.80
2018-07-16T19:40:13.344Z,40.80
2018-07-16T19:42:42.600Z,40.90
2018-07-16T19:45:12.572Z,40.90
2018-07-16T19:47:41.696Z,40.90
2018-07-16T19:50:10.877Z,40.90
2018-07-16T19:52:40.144Z,41.00
2018-07-16T19:55:09.305Z,41.10
2018-07-16T19:57:38.344Z,41.10
2018-07-16T20:00:07.884Z,41.20
2018-07-16T20:02:37.150Z,41.20
2018-07-16T20:05:06.997Z,41.20
2018-07-16T20:07:36.105Z,41.20
2018-07-16T20:10:05.274Z,41.20
2018-07-16T20:12:35.961Z,41.30
2018-07-16T20:15:06.230Z,41.30
2018-07-16T20:17:35.660Z,41.30
2018-07-16T20:20:07.353Z,41.40
2018-07-16T20:22:36.394Z,41.40
2018-07-16T20:25:06.541Z,41.50
2018-07-16T20:27:35.816Z,41.40
2018-07-16T20:30:06.899Z,41.40
2018-07-16T20:32:36.148Z,41.50
2018-07-16T20:35:05.720Z,41.50
2018-07-16T20:37:34.926Z,41.60
2018-07-16T20:40:04.225Z,41.60
2018-07-16T20:42:33.463Z,41.60
2018-07-16T20:45:02.712Z,41.60
2018-07-16T20:47:31.956Z,41.60
2018-07-16T20:50:01.191Z,41.70
2018-07-16T20:52:30.363Z,41.60
2018-07-16T20:54:59.306Z,41.70
2018-07-16T20:57:28.505Z,41.70
2018-07-16T20:59:57.734Z,41.60
2018-07-16T21:02:26.911Z,41.70
2018-07-16T21:04:55.935Z,41.70
2018-07-16T21:07:25.249Z,41.80
2018-07-16T21:09:54.406Z,41.80
2018-07-16T21:12:23.545Z,41.80
2018-07-16T21:14:52.836Z,41.80
2018-07-16T21:17:22.129Z,41.80
2018-07-16T21:19:51.043Z,41.80
2018-07-16T21:22:20.197Z,41.80
2018-07-16T21:24:49.330Z,41.80
2018-07-16T21:27:18.784Z,41.90
2018-07-16T21:29:48.195Z,41.90
2018-07-16T21:32:17.616Z,41.80
2018-07-16T21:34:46.861Z,41.90
2018-07-16T21:37:16.669Z,41.90
2018-07-16T21:39:45.742Z,41.90
2018-07-16T21:42:14.883Z,41.90
2018-07-16T21:44:43.920Z,41.90
2018-07-16T21:47:13.600Z,41.90
2018-07-16T21:49:42.646Z,41.80
2018-07-16T21:52:11.706Z,41.80
2018-07-16T21:54:40.883Z,41.80
2018-07-16T21:57:09.996Z,41.90
2018-07-16T21:59:39.177Z,42.50
2018-07-16T22:02:08.366Z,41.90
2018-07-16T22:04:37.346Z,41.80
2018-07-16T22:07:06.371Z,41.90
2018-07-16T22:09:35.600Z,41.90
2018-07-16T22:12:05.182Z,41.80
2018-07-16T22:14:34.575Z,41.90
2018-07-16T22:17:03.723Z,41.90
2018-07-16T22:19:32.730Z,41.90
2018-07-16T22:22:02.226Z,41.90
2018-07-16T22:24:31.221Z,41.90
2018-07-16T22:27:00.350Z,42.00
2018-07-16T22:29:29.620Z,41.90
2018-07-16T22:31:59.109Z,42.00
2018-07-16T22:34:28.257Z,42.00
2018-07-16T22:36:57.469Z,42.00
2018-07-16T22:39:26.897Z,41.90
2018-07-16T22:41:56.106Z,42.00
2018-07-16T22:44:25.549Z,42.10
2018-07-16T22:46:54.738Z,42.10
2018-07-16T22:49:23.951Z,42.10
2018-07-16T22:51:53.241Z,42.10
2018-07-16T22:54:22.463Z,42.10
2018-07-16T22:56:51.801Z,42.10
2018-07-16T22:59:21.151Z,42.10
2018-07-16T23:01:50.408Z,42.10
2018-07-16T23:04:19.525Z,42.10
2018-07-16T23:06:48.570Z,42.10
2018-07-16T23:09:17.671Z,42.10
2018-07-16T23:11:46.993Z,42.10
2018-07-16T23:14:16.300Z,42.20
2018-07-16T23:16:45.382Z,42.20
2018-07-16T23:19:14.533Z,42.20
2018-07-16T23:21:43.753Z,42.20
2018-07-16T23:24:12.855Z,42.20
2018-07-16T23:26:41.779Z,42.30
2018-07-16T23:29:11.023Z,42.20
2018-07-16T23:31:40.220Z,42.30
2018-07-16T23:34:09.645Z,42.30
2018-07-16T23:36:38.914Z,42.30
2018-07-16T23:39:10.773Z,42.30
2018-07-16T23:41:39.760Z,42.30
2018-07-16T23:44:09.143Z,42.20
2018-07-16T23:46:38.814Z,42.30
2018-07-16T23:49:08.570Z,42.40
2018-07-16T23:51:37.892Z,42.30
2018-07-16T23:54:07.186Z,42.40
2018-07-16T23:56:36.247Z,42.40
2018-07-16T23:59:05.598Z,42.40
